createdAt,value
2022-11-21T00:01:15.622Z,30.33
2022-11-21T00:03:45.235Z,29.10
2022-11-21T00:06:13.544Z,33.27
2022-11-21T00:08:41.895Z,32.93
2022-11-21T00:11:10.233Z,30.70
2022-11-21T00:13:38.739Z,31.80
2022-11-21T00:16:07.403Z,31.70
2022-11-21T00:18:36.040Z,28.27
2022-11-21T00:21:08.668Z,31.33
2022-11-21T00:23:37.081Z,30.90
2022-11-21T00:26:06.203Z,29.73
2022-11-21T00:28:34.563Z,28.10
2022-11-21T00:31:02.960Z,29.93
2022-11-21T00:33:31.239Z,31.30
2022-11-21T00:35:59.606Z,27.43
2022-11-21T00:38:30.306Z,30.77
2022-11-21T00:40:58.810Z,29.73
2022-11-21T00:43:27.234Z,29.63
2022-11-21T00:45:55.574Z,31.80
2022-11-21T00:48:23.931Z,27.53
2022-11-21T00:50:52.371Z,28.10
2022-11-21T00:53:20.696Z,30.33
2022-11-21T00:55:50.453Z,29.13
2022-11-21T00:58:18.891Z,29.47
2022-11-21T01:00:47.395Z,30.70
2022-11-21T01:03:15.810Z,31.90
2022-11-21T01:05:44.153Z,32.50
2022-11-21T01:08:12.478Z,30.90
2022-11-21T01:10:40.837Z,36.10
2022-11-21T01:13:10.596Z,35.50
2022-11-21T01:15:38.927Z,34.40
2022-11-21T01:18:07.299Z,39.23
2022-11-21T01:20:35.594Z,36.17
2022-11-21T01:23:03.885Z,38.90
2022-11-21T01:25:32.275Z,41.13
2022-11-21T01:28:00.626Z,39.07
2022-11-21T01:30:30.390Z,35.57
2022-11-21T01:32:58.683Z,37.43
2022-11-21T01:35:27.074Z,33.97
2022-11-21T01:37:55.460Z,36.17
2022-11-21T01:40:23.847Z,33.40
2022-11-21T01:42:55.252Z,36.67
2022-11-21T01:45:42.267Z,34.90
2022-11-21T01:48:11.946Z,36.70
2022-11-21T01:50:40.302Z,36.43
2022-11-21T01:53:08.876Z,37.23
2022-11-21T01:55:37.150Z,40.43
2022-11-21T01:58:06.115Z,36.37
2022-11-21T02:00:36.040Z,39.90
2022-11-21T02:03:05.060Z,39.23
2022-11-21T02:05:35.067Z,42.60
2022-11-21T02:08:04.352Z,43.23
2022-11-21T02:10:32.624Z,49.40
2022-11-21T02:13:01.050Z,41.50
2022-11-21T02:15:29.625Z,53.87
2022-11-21T02:17:58.201Z,45.67
2022-11-21T02:20:26.859Z,77.73
2022-11-21T02:22:58.659Z,54.07
2022-11-21T02:25:28.695Z,43.87
2022-11-21T02:27:57.258Z,42.83
2022-11-21T02:30:26.080Z,57.47
2022-11-21T02:32:54.508Z,46.13
2022-11-21T02:35:22.823Z,42.17
2022-11-21T02:37:52.837Z,51.87
2022-11-21T02:40:21.610Z,61.30
2022-11-21T02:42:52.997Z,42.80
2022-11-21T02:45:22.368Z,59.43
2022-11-21T02:47:51.177Z,60.17
2022-11-21T02:50:21.130Z,73.90
2022-11-21T02:52:49.472Z,49.63
2022-11-21T02:55:17.844Z,50.20
2022-11-21T02:57:46.139Z,46.77
2022-11-21T03:00:16.099Z,50.33
2022-11-21T03:02:44.434Z,54.23
2022-11-21T03:05:13.371Z,117.90
2022-11-21T03:07:41.813Z,104.13
2022-11-21T03:10:10.560Z,72.10
2022-11-21T03:12:39.029Z,48.33
2022-11-21T03:15:07.860Z,47.90
2022-11-21T03:17:37.554Z,48.87
2022-11-21T03:20:06.141Z,54.63
2022-11-21T03:22:34.622Z,41.90
2022-11-21T03:25:02.943Z,48.50
2022-11-21T03:27:31.302Z,47.63
2022-11-21T03:29:59.663Z,63.27
2022-11-21T03:32:28.043Z,49.93
2022-11-21T03:34:57.723Z,36.40
2022-11-21T03:37:26.064Z,46.27
2022-11-21T03:39:54.490Z,46.60
2022-11-21T03:42:22.777Z,46.33
2022-11-21T03:44:51.090Z,50.33
2022-11-21T03:47:19.419Z,37.83
2022-11-21T03:49:47.816Z,40.33
2022-11-21T03:52:17.559Z,60.87
2022-11-21T03:54:45.922Z,49.60
2022-11-21T03:57:14.266Z,40.80
2022-11-21T03:59:42.586Z,39.70
2022-11-21T04:02:11.704Z,55.17
2022-11-21T04:04:39.994Z,36.70
2022-11-21T04:07:08.570Z,48.70
2022-11-21T04:09:38.473Z,71.43
2022-11-21T04:12:08.043Z,93.53
2022-11-21T04:14:36.524Z,55.23
2022-11-21T04:17:05.022Z,60.17
2022-11-21T04:19:33.259Z,38.87
2022-11-21T04:22:01.596Z,42.80
2022-11-21T04:24:30.337Z,57.53
2022-11-21T04:27:00.275Z,49.80
2022-11-21T04:29:28.711Z,42.37
2022-11-21T04:31:57.054Z,47.63
2022-11-21T04:34:25.795Z,67.53
2022-11-21T04:36:54.377Z,53.93
2022-11-21T04:39:22.787Z,50.83
2022-11-21T04:41:51.154Z,46.27
2022-11-21T04:44:20.850Z,42.57
2022-11-21T04:46:49.124Z,50.43
2022-11-21T04:49:17.423Z,44.30
2022-11-21T04:51:45.770Z,46.30
2022-11-21T04:54:14.199Z,54.30
2022-11-21T04:56:42.537Z,70.57
2022-11-21T04:59:11.993Z,41.80
2022-11-21T05:01:41.827Z,35.70
2022-11-21T05:04:10.308Z,54.53
2022-11-21T05:06:38.624Z,47.13
2022-11-21T05:09:06.980Z,35.27
2022-11-21T05:11:52.661Z,30.20
2022-11-21T05:14:20.972Z,39.87
2022-11-21T05:16:50.658Z,35.80
2022-11-21T05:19:18.935Z,38.33
2022-11-21T05:21:47.315Z,36.17
2022-11-21T05:24:15.987Z,41.70
2022-11-21T05:26:44.351Z,32.03
2022-11-21T05:29:12.921Z,39.13
2022-11-21T05:31:41.266Z,36.60
2022-11-21T05:34:10.978Z,64.83
2022-11-21T05:36:39.292Z,39.97
2022-11-21T05:39:07.586Z,49.23
2022-11-21T05:41:35.931Z,41.63
2022-11-21T05:44:03.317Z,47.30
2022-11-21T05:46:31.740Z,51.20
2022-11-21T05:49:00.072Z,51.80
2022-11-21T05:51:29.895Z,38.97
2022-11-21T05:53:58.244Z,55.17
2022-11-21T05:56:26.707Z,43.07
2022-11-21T05:58:56.415Z,69.87
2022-11-21T06:01:38.627Z,38.07
2022-11-21T06:04:06.932Z,35.40
2022-11-21T06:06:36.632Z,33.93
2022-11-21T06:09:04.974Z,35.03
2022-11-21T06:11:33.304Z,34.47
2022-11-21T06:14:01.580Z,33.20
2022-11-21T06:16:29.893Z,33.03
2022-11-21T06:18:58.969Z,32.07
2022-11-21T06:21:28.221Z,34.07
2022-11-21T06:23:58.290Z,33.20
2022-11-21T06:26:27.087Z,30.77
2022-11-21T06:28:55.642Z,32.17
2022-11-21T06:31:24.776Z,29.23
2022-11-21T06:33:53.698Z,30.00
2022-11-21T06:36:21.972Z,32.40
2022-11-21T06:38:50.294Z,32.67
2022-11-21T06:41:20.389Z,32.67
2022-11-21T06:43:48.740Z,31.93
2022-11-21T06:46:17.211Z,30.47
2022-11-21T06:48:45.485Z,29.87
2022-11-21T06:51:14.771Z,31.87
2022-11-21T06:53:43.062Z,31.30
2022-11-21T06:56:11.558Z,30.50
2022-11-21T06:58:41.343Z,33.37
2022-11-21T07:01:10.335Z,31.80
2022-11-21T07:03:38.790Z,28.87
2022-11-21T07:06:07.140Z,31.43
2022-11-21T07:08:36.379Z,29.67
2022-11-21T07:11:24.274Z,30.23
2022-11-21T07:14:03.827Z,32.33
2022-11-21T07:16:36.399Z,33.73
2022-11-21T07:19:05.113Z,32.17
2022-11-21T07:21:33.717Z,34.57
2022-11-21T07:24:02.116Z,34.60
2022-11-21T07:26:30.409Z,31.00
2022-11-21T07:29:00.205Z,35.53
2022-11-21T07:31:28.531Z,31.13
2022-11-21T07:33:56.863Z,33.20
2022-11-21T07:36:25.138Z,33.13
2022-11-21T07:38:53.567Z,34.67
2022-11-21T07:41:21.903Z,33.93
2022-11-21T07:43:50.339Z,32.67
2022-11-21T07:46:20.009Z,30.93
2022-11-21T07:48:48.481Z,30.07
2022-11-21T07:51:19.758Z,36.47
2022-11-21T07:53:48.668Z,30.27
2022-11-21T07:56:16.962Z,34.67
2022-11-21T07:58:45.242Z,34.43
2022-11-21T08:01:13.679Z,32.17
2022-11-21T08:03:43.662Z,34.07
2022-11-21T08:06:12.122Z,32.47
2022-11-21T08:08:40.566Z,33.37
2022-11-21T08:11:08.956Z,33.23
2022-11-21T08:13:37.255Z,35.20
2022-11-21T08:16:05.614Z,31.40
2022-11-21T08:18:33.969Z,32.30
2022-11-21T08:21:04.339Z,36.47
2022-11-21T08:23:32.775Z,32.60
2022-11-21T08:26:01.226Z,30.33
2022-11-21T08:28:29.591Z,31.63
2022-11-21T08:30:57.928Z,32.90
2022-11-21T08:33:26.313Z,29.10
2022-11-21T08:35:54.691Z,31.63
2022-11-21T08:38:24.361Z,27.60
2022-11-21T08:41:17.451Z,25.87
2022-11-21T08:43:46.373Z,20.57
2022-11-21T08:46:14.658Z,28.10
2022-11-21T08:48:43.125Z,19.67
2022-11-21T08:51:11.539Z,21.10
2022-11-21T08:53:41.372Z,17.87
2022-11-21T08:56:09.791Z,17.70
2022-11-21T08:58:38.119Z,17.30
2022-11-21T09:01:06.661Z,12.90
2022-11-21T09:03:35.295Z,14.83
2022-11-21T09:06:03.613Z,18.10
2022-11-21T09:08:31.921Z,14.30
2022-11-21T09:11:04.912Z,12.53
2022-11-21T09:13:33.294Z,20.60
2022-11-21T09:16:20.592Z,14.57
2022-11-21T09:18:49.215Z,10.83
2022-11-21T09:21:17.578Z,12.73
2022-11-21T09:23:47.055Z,11.33
2022-11-21T09:26:16.889Z,16.10
2022-11-21T09:28:45.159Z,19.77
2022-11-21T09:31:13.870Z,12.77
2022-11-21T09:33:42.293Z,13.50
2022-11-21T09:36:10.710Z,16.57
2022-11-21T09:38:42.198Z,12.67
2022-11-21T09:41:33.612Z,11.13
2022-11-21T09:44:06.082Z,13.03
2022-11-21T09:46:35.988Z,12.40
2022-11-21T09:49:05.711Z,13.37
2022-11-21T09:51:33.982Z,11.67
2022-11-21T09:54:03.378Z,12.57
2022-11-21T09:56:32.362Z,14.20
2022-11-21T09:59:21.784Z,16.73
2022-11-21T10:01:50.123Z,12.87
2022-11-21T10:04:21.633Z,12.73
2022-11-21T10:06:51.639Z,15.37
2022-11-21T10:09:20.836Z,18.03
2022-11-21T10:12:07.873Z,12.57
2022-11-21T10:14:42.809Z,14.43
2022-11-21T10:17:13.826Z,10.13
2022-11-21T10:19:47.980Z,13.23
2022-11-21T10:22:22.714Z,15.20
2022-11-21T10:24:56.830Z,11.77
2022-11-21T10:27:28.367Z,12.67
2022-11-21T10:30:00.231Z,11.70
2022-11-21T10:32:29.223Z,16.97
2022-11-21T10:34:57.870Z,13.73
2022-11-21T10:37:29.526Z,17.13
2022-11-21T10:39:57.905Z,18.87
2022-11-21T10:42:32.978Z,14.73
2022-11-21T10:45:19.886Z,19.37
2022-11-21T10:47:48.684Z,12.63
2022-11-21T10:50:27.313Z,12.33
2022-11-21T10:52:57.911Z,15.53
2022-11-21T10:55:26.344Z,10.57
2022-11-21T10:57:55.551Z,10.20
2022-11-21T11:00:26.135Z,15.37
2022-11-21T11:03:04.675Z,17.43
2022-11-21T11:05:33.689Z,17.40
2022-11-21T11:08:03.692Z,18.23
2022-11-21T11:10:32.194Z,20.80
2022-11-21T11:13:44.545Z,20.60
2022-11-21T11:16:08.749Z,15.47
2022-11-21T11:18:37.378Z,20.53
2022-11-21T11:21:13.660Z,19.90
2022-11-21T11:23:42.068Z,18.53
2022-11-21T11:26:20.394Z,21.73
2022-11-21T11:28:55.935Z,16.97
2022-11-21T11:31:25.926Z,23.60
2022-11-21T11:33:55.276Z,22.77
2022-11-21T11:36:31.332Z,21.73
2022-11-21T11:39:00.961Z,22.30
2022-11-21T11:42:16.411Z,13.67
2022-11-21T11:45:04.923Z,19.33
2022-11-21T11:47:35.414Z,13.63
2022-11-21T11:50:13.468Z,13.53
2022-11-21T11:52:44.942Z,13.17
2022-11-21T11:55:16.592Z,13.30
2022-11-21T11:57:45.117Z,12.40
2022-11-21T12:00:25.782Z,16.30
2022-11-21T12:02:57.306Z,9.03
2022-11-21T12:05:26.741Z,14.37
2022-11-21T12:08:40.072Z,11.93
2022-11-21T12:11:07.349Z,12.67
2022-11-21T12:13:35.720Z,11.90
2022-11-21T12:16:11.953Z,9.40
2022-11-21T12:18:44.914Z,9.17
2022-11-21T12:21:14.150Z,11.57
2022-11-21T12:23:43.998Z,15.97
2022-11-21T12:26:18.079Z,6.83
2022-11-21T12:28:48.468Z,8.60
2022-11-21T12:31:17.247Z,13.97
2022-11-21T12:33:48.645Z,9.70
2022-11-21T12:36:19.222Z,12.43
2022-11-21T12:38:51.801Z,16.10
2022-11-21T12:41:39.258Z,8.97
2022-11-21T12:44:11.433Z,12.90
2022-11-21T12:46:41.800Z,7.00
2022-11-21T12:49:30.870Z,9.60
2022-11-21T12:52:20.507Z,8.27
2022-11-21T12:54:58.281Z,10.97
2022-11-21T12:57:29.077Z,11.00
2022-11-21T12:59:59.973Z,13.33
2022-11-21T13:02:33.501Z,9.80
2022-11-21T13:05:03.225Z,12.27
2022-11-21T13:07:31.624Z,16.80
2022-11-21T13:10:00.808Z,10.27
2022-11-21T13:12:37.120Z,10.10
2022-11-21T13:15:07.653Z,11.83
2022-11-21T13:17:39.347Z,10.83
2022-11-21T13:20:15.143Z,15.50
2022-11-21T13:22:53.411Z,16.63
2022-11-21T13:25:39.485Z,13.23
2022-11-21T13:28:32.574Z,14.63
2022-11-21T13:31:01.711Z,17.53
2022-11-21T13:33:48.058Z,11.50
2022-11-21T13:36:32.096Z,16.50
2022-11-21T13:39:34.259Z,10.97
2022-11-21T13:42:22.417Z,10.07
2022-11-21T13:44:51.141Z,9.33
2022-11-21T13:47:33.703Z,11.87
2022-11-21T13:50:05.242Z,15.63
2022-11-21T13:52:35.102Z,12.90
2022-11-21T13:55:10.222Z,12.33
2022-11-21T13:57:47.024Z,10.73
2022-11-21T14:00:22.879Z,12.53
2022-11-21T14:02:56.295Z,8.10
2022-11-21T14:05:39.499Z,12.33
2022-11-21T14:08:15.161Z,10.17
2022-11-21T14:10:43.578Z,13.57
2022-11-21T14:13:18.895Z,15.07
2022-11-21T14:15:52.149Z,15.47
2022-11-21T14:18:22.912Z,8.33
2022-11-21T14:20:52.175Z,12.93
2022-11-21T14:23:20.933Z,7.73
2022-11-21T14:25:50.266Z,13.77
2022-11-21T14:28:23.415Z,12.73
2022-11-21T14:30:52.068Z,12.03
2022-11-21T14:33:24.215Z,11.77
2022-11-21T14:35:53.776Z,10.73
2022-11-21T14:38:22.643Z,10.37
2022-11-21T14:40:51.129Z,9.77
2022-11-21T14:43:30.795Z,9.47
2022-11-21T14:45:59.306Z,14.87
2022-11-21T14:48:28.301Z,9.50
2022-11-21T14:50:57.351Z,10.57
2022-11-21T14:53:26.936Z,17.20
2022-11-21T14:56:01.233Z,8.93
2022-11-21T14:58:31.889Z,10.60
2022-11-21T15:01:03.479Z,11.53
2022-11-21T15:03:31.992Z,15.00
2022-11-21T15:06:04.741Z,15.40
2022-11-21T15:11:22.704Z,13.73
2022-11-21T15:16:41.317Z,11.67
2022-11-21T15:19:10.879Z,11.90
2022-11-21T15:21:39.655Z,12.17
2022-11-21T15:24:17.813Z,8.70
2022-11-21T15:26:47.339Z,16.17
2022-11-21T15:29:22.874Z,12.97
2022-11-21T15:32:06.552Z,18.07
2022-11-21T15:34:36.561Z,15.87
2022-11-21T15:37:17.145Z,13.93
2022-11-21T15:39:45.665Z,13.37
2022-11-21T15:42:29.876Z,11.47
2022-11-21T15:45:02.861Z,13.80
2022-11-21T15:47:31.222Z,18.10
2022-11-21T15:49:59.628Z,17.13
2022-11-21T15:52:27.899Z,14.30
2022-11-21T15:54:58.258Z,16.77
2022-11-21T15:57:27.109Z,17.03
2022-11-21T15:59:55.441Z,21.80
2022-11-21T16:02:25.569Z,14.67
2022-11-21T16:04:54.622Z,15.23
2022-11-21T16:07:23.085Z,16.97
2022-11-21T16:09:52.265Z,12.37
2022-11-21T16:12:20.619Z,23.27
2022-11-21T16:14:48.948Z,16.17
2022-11-21T16:17:17.285Z,14.57
2022-11-21T16:19:47.217Z,17.63
2022-11-21T16:22:16.789Z,13.87
2022-11-21T16:24:45.220Z,13.50
2022-11-21T16:27:13.759Z,14.10
2022-11-21T16:29:42.283Z,15.90
2022-11-21T16:32:10.675Z,15.93
2022-11-21T16:34:39.048Z,21.33
2022-11-21T16:37:09.054Z,15.60
2022-11-21T16:39:37.338Z,13.97
2022-11-21T16:42:05.766Z,13.17
2022-11-21T16:44:34.230Z,12.63
2022-11-21T16:47:08.098Z,20.27
2022-11-21T16:49:42.772Z,14.60
2022-11-21T16:52:12.866Z,12.07
2022-11-21T16:54:41.142Z,20.47
2022-11-21T16:57:09.572Z,12.63
2022-11-21T16:59:41.027Z,11.17
2022-11-21T17:02:09.430Z,11.17
2022-11-21T17:04:38.113Z,16.57
2022-11-21T17:07:06.480Z,13.43
2022-11-21T17:09:37.481Z,16.80
2022-11-21T17:12:05.968Z,13.30
2022-11-21T17:14:34.376Z,13.90
2022-11-21T17:17:05.608Z,11.93
2022-11-21T17:19:33.997Z,14.90
2022-11-21T17:22:02.446Z,13.30
2022-11-21T17:24:31.020Z,18.33
2022-11-21T17:27:02.577Z,12.70
2022-11-21T17:29:32.058Z,13.47
2022-11-21T17:32:00.512Z,20.47
2022-11-21T17:34:33.026Z,16.93
2022-11-21T17:37:01.813Z,15.77
2022-11-21T17:39:30.509Z,13.33
2022-11-21T17:41:59.983Z,16.67
2022-11-21T17:44:30.006Z,14.23
2022-11-21T17:47:04.311Z,15.17
2022-11-21T17:49:42.170Z,12.20
2022-11-21T17:52:12.049Z,17.60
2022-11-21T17:54:41.011Z,16.23
2022-11-21T17:57:09.651Z,13.57
2022-11-21T17:59:39.678Z,12.20
2022-11-21T18:02:08.105Z,13.57
2022-11-21T18:04:39.032Z,14.73
2022-11-21T18:07:07.438Z,19.60
2022-11-21T18:09:36.057Z,13.63
2022-11-21T18:12:04.403Z,18.00
2022-11-21T18:14:32.713Z,15.87
2022-11-21T18:17:02.747Z,26.10
2022-11-21T18:19:31.129Z,15.67
2022-11-21T18:21:59.410Z,14.57
2022-11-21T18:24:28.055Z,15.43
2022-11-21T18:26:56.664Z,14.87
2022-11-21T18:29:36.573Z,13.17
2022-11-21T18:32:07.463Z,14.17
2022-11-21T18:34:38.814Z,16.10
2022-11-21T18:37:07.324Z,13.57
2022-11-21T18:39:37.042Z,20.03
2022-11-21T18:42:05.543Z,26.80
2022-11-21T18:44:33.850Z,31.93
2022-11-21T18:47:02.144Z,22.87
2022-11-21T18:49:32.809Z,15.13
2022-11-21T18:52:01.138Z,19.50
2022-11-21T18:54:29.913Z,15.40
2022-11-21T18:56:58.324Z,13.87
2022-11-21T18:59:26.792Z,14.73
2022-11-21T19:01:55.419Z,14.30
2022-11-21T19:04:24.720Z,17.13
2022-11-21T19:06:54.639Z,17.90
2022-11-21T19:09:25.778Z,15.07
2022-11-21T19:11:56.457Z,15.70
2022-11-21T19:14:24.791Z,12.73
2022-11-21T19:16:53.215Z,11.33
2022-11-21T19:19:36.729Z,12.27
2022-11-21T19:22:06.488Z,13.50
2022-11-21T19:24:34.890Z,11.57
2022-11-21T19:27:03.320Z,12.83
2022-11-21T19:29:33.263Z,16.53
2022-11-21T19:32:01.763Z,13.00
2022-11-21T19:34:30.076Z,12.97
2022-11-21T19:36:58.531Z,14.10
2022-11-21T19:39:28.708Z,14.83
2022-11-21T19:41:57.280Z,15.07
2022-11-21T19:44:25.789Z,15.27
2022-11-21T19:46:54.175Z,14.13
2022-11-21T19:49:22.506Z,12.10
2022-11-21T19:51:50.997Z,11.87
2022-11-21T19:54:19.314Z,11.57
2022-11-21T19:56:49.044Z,13.37
2022-11-21T19:59:17.532Z,14.27
2022-11-21T20:01:52.187Z,13.83
2022-11-21T20:04:21.045Z,11.93
2022-11-21T20:06:49.872Z,12.37
2022-11-21T20:09:18.963Z,12.17
2022-11-21T20:11:49.282Z,11.40
2022-11-21T20:14:21.835Z,13.60
2022-11-21T20:16:51.505Z,10.93
2022-11-21T20:19:20.528Z,13.67
2022-11-21T20:21:48.875Z,12.97
2022-11-21T20:24:17.622Z,13.80
2022-11-21T20:26:46.154Z,9.83
2022-11-21T20:29:15.950Z,13.67
2022-11-21T20:31:44.627Z,14.33
2022-11-21T20:34:13.524Z,15.43
2022-11-21T20:36:41.897Z,11.80
2022-11-21T20:39:10.788Z,15.47
2022-11-21T20:41:39.036Z,14.87
2022-11-21T20:45:07.096Z,15.20
2022-11-21T20:46:57.934Z,12.37
2022-11-21T20:49:26.573Z,14.03
2022-11-21T20:54:44.525Z,12.67
2022-11-21T20:57:15.313Z,12.47
2022-11-21T20:59:44.293Z,13.37
2022-11-21T21:02:14.789Z,11.50
2022-11-21T21:04:43.389Z,13.70
2022-11-21T21:07:13.256Z,14.33
2022-11-21T21:09:41.766Z,11.63
2022-11-21T21:12:10.178Z,13.60
2022-11-21T21:14:39.035Z,11.87
2022-11-21T21:17:07.685Z,12.23
2022-11-21T21:19:40.371Z,15.13
2022-11-21T21:22:10.345Z,8.10
2022-11-21T21:24:38.708Z,13.53
2022-11-21T21:27:07.952Z,13.67
2022-11-21T21:29:36.281Z,16.47
2022-11-21T21:32:05.090Z,11.70
2022-11-21T21:34:33.745Z,12.27
2022-11-21T21:37:03.481Z,12.73
2022-11-21T21:39:31.875Z,10.97
2022-11-21T21:42:00.377Z,9.13
2022-11-21T21:44:33.198Z,12.73
2022-11-21T21:47:01.945Z,12.77
2022-11-21T21:49:30.384Z,13.70
2022-11-21T21:51:58.992Z,16.27
2022-11-21T21:54:30.065Z,13.43
2022-11-21T21:56:58.923Z,13.37
2022-11-21T21:59:27.561Z,12.47
2022-11-21T22:01:58.362Z,15.53
2022-11-21T22:04:26.859Z,12.90
2022-11-21T22:06:55.220Z,12.47
2022-11-21T22:09:26.449Z,11.60
2022-11-21T22:11:56.813Z,10.40
2022-11-21T22:14:25.198Z,10.40
2022-11-21T22:16:54.987Z,9.67
2022-11-21T22:19:23.616Z,17.30
2022-11-21T22:21:51.928Z,13.93
2022-11-21T22:24:25.834Z,12.53
2022-11-21T22:26:56.333Z,19.03
2022-11-21T22:29:24.895Z,12.33
2022-11-21T22:31:55.270Z,13.87
2022-11-21T22:34:23.802Z,14.20
2022-11-21T22:36:52.365Z,18.27
2022-11-21T22:39:21.055Z,15.17
2022-11-21T22:41:49.526Z,13.60
2022-11-21T22:44:19.212Z,11.87
2022-11-21T22:46:47.518Z,14.83
2022-11-21T22:49:15.854Z,16.03
2022-11-21T22:51:44.250Z,14.57
2022-11-21T22:54:12.939Z,15.30
2022-11-21T22:56:41.505Z,13.63
2022-11-21T22:59:09.962Z,16.80
2022-11-21T23:01:39.749Z,18.23
2022-11-21T23:04:08.097Z,19.20
2022-11-21T23:06:36.494Z,11.20
2022-11-21T23:09:05.107Z,16.10
2022-11-21T23:11:40.297Z,13.23
2022-11-21T23:14:09.172Z,17.37
2022-11-21T23:16:37.589Z,15.37
2022-11-21T23:19:07.436Z,19.37
2022-11-21T23:21:36.366Z,17.47
2022-11-21T23:24:04.746Z,19.83
2022-11-21T23:26:33.069Z,17.57
2022-11-21T23:29:06.860Z,16.93
2022-11-21T23:31:37.188Z,16.40
2022-11-21T23:34:07.167Z,14.67
2022-11-21T23:36:35.638Z,18.67
2022-11-21T23:39:03.935Z,20.27
2022-11-21T23:41:35.291Z,20.20
2022-11-21T23:44:03.620Z,11.67
2022-11-21T23:46:31.955Z,17.53
2022-11-21T23:49:00.345Z,21.20
2022-11-21T23:51:30.106Z,18.60
2022-11-21T23:53:58.414Z,14.30
2022-11-21T23:56:26.758Z,17.43
2022-11-21T23:58:55.303Z,12.23
